createdAt,value
2022-08-17T00:01:32.713Z,39.33
2022-08-17T00:04:18.564Z,42.53
2022-08-17T00:06:45.920Z,37.00
2022-08-17T00:09:18.895Z,40.50
2022-08-17T00:12:42.216Z,37.00
2022-08-17T00:14:35.143Z,39.03
2022-08-17T00:17:04.474Z,39.67
2022-08-17T00:19:31.705Z,34.72
2022-08-17T00:22:32.378Z,38.92
2022-08-17T00:24:46.369Z,32.13
2022-08-17T00:27:13.694Z,39.10
2022-08-17T00:29:40.925Z,40.90
2022-08-17T00:33:11.678Z,40.63
2022-08-17T00:34:56.823Z,37.92
2022-08-17T00:37:25.067Z,35.90
2022-08-17T00:39:53.596Z,38.25
2022-08-17T00:42:20.851Z,41.80
2022-08-17T00:44:48.091Z,24.75
2022-08-17T00:47:16.689Z,39.33
2022-08-17T00:49:43.932Z,37.10
2022-08-17T00:52:14.444Z,26.70
2022-08-17T00:54:42.747Z,33.85
2022-08-17T00:57:11.628Z,34.35
2022-08-17T00:59:39.836Z,35.75
2022-08-17T01:02:08.387Z,36.95
2022-08-17T01:04:38.314Z,25.08
2022-08-17T01:07:07.515Z,36.00
2022-08-17T01:09:34.856Z,28.27
2022-08-17T01:12:02.283Z,39.30
2022-08-17T01:14:29.631Z,39.15
2022-08-17T01:16:56.990Z,31.52
2022-08-17T01:19:25.463Z,42.47
2022-08-17T01:21:58.279Z,37.30
2022-08-17T01:24:28.650Z,32.30
2022-08-17T01:26:56.679Z,30.98
2022-08-17T01:29:25.415Z,21.63
2022-08-17T01:31:54.232Z,18.35
2022-08-17T01:34:50.167Z,17.83
2022-08-17T01:37:46.483Z,22.25
2022-08-17T01:40:17.154Z,17.80
2022-08-17T01:42:46.083Z,9.13
2022-08-17T01:45:15.361Z,19.33
2022-08-17T01:47:42.607Z,24.77
2022-08-17T01:50:11.489Z,20.10
2022-08-17T01:53:04.992Z,17.33
2022-08-17T01:55:35.701Z,10.35
2022-08-17T01:58:02.983Z,24.90
2022-08-17T02:00:59.726Z,23.02
2022-08-17T02:06:54.564Z,25.45
2022-08-17T02:09:23.364Z,16.25
2022-08-17T02:11:54.339Z,21.40
2022-08-17T02:14:21.751Z,23.73
2022-08-17T02:16:48.966Z,17.33
2022-08-17T02:19:16.529Z,17.27
2022-08-17T02:21:45.719Z,18.48
2022-08-17T02:24:15.712Z,21.73
2022-08-17T02:26:43.074Z,20.23
2022-08-17T02:29:11.654Z,19.10
2022-08-17T02:31:38.891Z,20.35
2022-08-17T02:34:06.158Z,16.08
2022-08-17T02:36:48.579Z,17.70
2022-08-17T02:39:15.819Z,19.77
2022-08-17T02:41:43.052Z,18.73
2022-08-17T02:44:11.628Z,12.38
2022-08-17T02:46:38.911Z,17.38
2022-08-17T02:49:06.208Z,16.45
2022-08-17T02:54:40.591Z,13.65
2022-08-17T02:57:03.495Z,19.77
2022-08-17T02:59:32.251Z,14.20
2022-08-17T03:01:59.569Z,13.25
2022-08-17T03:04:27.081Z,11.32
2022-08-17T03:07:13.219Z,15.65
2022-08-17T03:09:40.604Z,14.27
2022-08-17T03:12:08.967Z,11.50
2022-08-17T03:14:41.486Z,16.05
2022-08-17T03:17:09.511Z,12.60
2022-08-17T03:19:39.700Z,15.07
2022-08-17T03:22:36.882Z,13.18
2022-08-17T03:24:57.871Z,14.45
2022-08-17T03:27:25.431Z,11.50
2022-08-17T03:29:54.275Z,16.08
2022-08-17T03:32:21.594Z,11.25
2022-08-17T03:34:49.068Z,8.43
2022-08-17T03:37:17.143Z,8.88
2022-08-17T03:39:44.436Z,12.10
2022-08-17T03:42:31.563Z,8.55
2022-08-17T03:45:02.033Z,9.18
2022-08-17T03:47:29.324Z,9.07
2022-08-17T03:49:56.536Z,7.10
2022-08-17T03:52:23.825Z,11.13
2022-08-17T03:54:51.044Z,7.95
2022-08-17T03:57:18.407Z,8.23
2022-08-17T03:59:45.644Z,9.70
2022-08-17T04:02:17.228Z,8.90
2022-08-17T04:04:44.553Z,7.60
2022-08-17T04:07:11.997Z,7.03
2022-08-17T04:09:39.394Z,5.78
2022-08-17T04:12:06.709Z,6.15
2022-08-17T04:14:33.994Z,7.88
2022-08-17T04:17:01.229Z,6.88
2022-08-17T04:19:29.854Z,6.75
2022-08-17T04:21:57.304Z,5.60
2022-08-17T04:24:24.561Z,6.85
2022-08-17T04:26:53.802Z,8.68
2022-08-17T04:29:21.867Z,5.93
2022-08-17T04:31:49.389Z,6.15
2022-08-17T04:34:19.987Z,6.63
2022-08-17T04:36:54.870Z,6.53
2022-08-17T04:39:22.148Z,8.70
2022-08-17T04:41:49.355Z,11.70
2022-08-17T04:44:28.362Z,6.90
2022-08-17T04:47:03.868Z,13.57
2022-08-17T04:49:31.120Z,8.27
2022-08-17T04:52:04.310Z,8.88
2022-08-17T04:54:32.284Z,8.38
2022-08-17T04:56:59.661Z,9.07
2022-08-17T04:59:26.934Z,10.75
2022-08-17T05:01:54.197Z,7.88
2022-08-17T05:04:33.867Z,9.23
2022-08-17T05:07:03.646Z,9.15
2022-08-17T05:09:31.017Z,10.27
2022-08-17T05:12:00.832Z,9.13
2022-08-17T05:14:33.131Z,11.43
2022-08-17T05:17:01.196Z,14.35
2022-08-17T05:19:29.060Z,14.38
2022-08-17T05:21:56.321Z,9.70
2022-08-17T05:24:39.113Z,10.23
2022-08-17T05:27:10.751Z,11.45
2022-08-17T05:29:46.063Z,12.38
2022-08-17T05:32:39.479Z,11.88
2022-08-17T05:35:01.220Z,10.00
2022-08-17T05:37:28.714Z,10.60
2022-08-17T05:39:58.957Z,11.80
2022-08-17T05:42:26.208Z,11.15
2022-08-17T05:44:53.436Z,11.85
2022-08-17T05:47:21.915Z,11.20
2022-08-17T05:49:49.329Z,9.15
2022-08-17T05:52:23.542Z,12.60
2022-08-17T05:55:01.591Z,10.98
2022-08-17T05:57:53.297Z,8.98
2022-08-17T06:00:30.166Z,9.85
2022-08-17T06:03:07.981Z,9.88
2022-08-17T06:05:45.325Z,13.93
2022-08-17T06:08:13.771Z,14.40
2022-08-17T06:10:43.516Z,14.05
2022-08-17T06:13:16.549Z,10.30
2022-08-17T06:15:50.705Z,11.85
2022-08-17T06:18:19.302Z,12.73
2022-08-17T06:20:49.596Z,11.30
2022-08-17T06:23:24.628Z,8.32
2022-08-17T06:25:53.247Z,10.23
2022-08-17T06:28:22.923Z,7.50
2022-08-17T06:31:00.081Z,11.80
2022-08-17T06:33:31.258Z,9.05
2022-08-17T06:36:01.602Z,12.35
2022-08-17T06:38:37.724Z,5.72
2022-08-17T06:41:09.260Z,13.85
2022-08-17T06:43:47.817Z,10.93
2022-08-17T06:46:19.974Z,10.48
2022-08-17T06:48:50.640Z,8.32
2022-08-17T06:51:19.753Z,11.23
2022-08-17T06:53:49.039Z,12.98
2022-08-17T06:56:22.240Z,11.05
2022-08-17T06:58:49.552Z,12.27
2022-08-17T07:01:29.725Z,12.88
2022-08-17T07:04:00.023Z,7.95
2022-08-17T07:06:40.282Z,12.18
2022-08-17T07:09:09.447Z,11.10
2022-08-17T07:11:39.209Z,11.32
2022-08-17T07:14:17.141Z,11.45
2022-08-17T07:16:47.403Z,11.82
2022-08-17T07:19:16.018Z,10.27
2022-08-17T07:21:46.253Z,11.52
2022-08-17T07:24:30.090Z,9.73
2022-08-17T07:27:05.315Z,8.07
2022-08-17T07:29:34.421Z,10.48
2022-08-17T07:32:03.339Z,14.40
2022-08-17T07:34:59.483Z,11.20
2022-08-17T07:37:26.752Z,10.95
2022-08-17T07:39:59.728Z,9.32
2022-08-17T07:42:45.016Z,12.20
2022-08-17T07:45:15.291Z,10.98
2022-08-17T07:47:49.896Z,8.60
2022-08-17T07:50:25.995Z,12.43
2022-08-17T07:52:53.393Z,8.60
2022-08-17T07:55:28.672Z,15.70
2022-08-17T07:57:56.355Z,13.68
2022-08-17T08:00:31.713Z,11.30
2022-08-17T08:03:12.121Z,13.80
2022-08-17T08:05:50.587Z,14.13
2022-08-17T08:08:38.870Z,14.77
2022-08-17T08:11:08.225Z,15.25
2022-08-17T08:13:36.147Z,14.98
2022-08-17T08:16:14.240Z,15.88
2022-08-17T08:18:57.797Z,16.70
2022-08-17T08:21:32.222Z,15.63
2022-08-17T08:24:01.660Z,16.60
2022-08-17T08:26:33.101Z,14.55
2022-08-17T08:29:04.301Z,11.15
2022-08-17T08:31:41.631Z,16.52
2022-08-17T08:34:54.762Z,14.88
2022-08-17T08:37:15.819Z,14.52
2022-08-17T08:39:48.842Z,15.18
2022-08-17T08:42:19.275Z,12.88
2022-08-17T08:45:00.296Z,15.38
2022-08-17T08:47:38.327Z,15.00
2022-08-17T08:50:37.506Z,14.23
2022-08-17T08:53:11.547Z,13.45
2022-08-17T08:55:46.021Z,16.30
2022-08-17T08:58:32.321Z,15.37
2022-08-17T09:01:06.396Z,18.27
2022-08-17T09:03:52.194Z,7.85
2022-08-17T09:06:38.915Z,16.95
2022-08-17T09:09:14.404Z,16.65
2022-08-17T09:12:02.270Z,12.73
2022-08-17T09:14:44.945Z,11.90
2022-08-17T09:17:15.187Z,13.05
2022-08-17T09:19:46.857Z,11.52
2022-08-17T09:22:21.968Z,7.25
2022-08-17T09:24:51.352Z,8.93
2022-08-17T09:27:20.322Z,8.05
2022-08-17T09:29:49.750Z,8.00
2022-08-17T09:32:18.514Z,6.28
2022-08-17T09:35:12.822Z,6.75
2022-08-17T09:38:05.824Z,8.75
2022-08-17T09:40:38.499Z,6.60
2022-08-17T09:43:12.105Z,7.88
2022-08-17T09:45:41.366Z,7.43
2022-08-17T09:48:12.853Z,8.52
2022-08-17T09:51:05.530Z,8.52
2022-08-17T09:56:25.595Z,6.90
2022-08-17T09:59:03.456Z,8.88
2022-08-17T10:01:36.506Z,7.97
2022-08-17T10:04:27.436Z,7.57
2022-08-17T10:06:58.893Z,9.13
2022-08-17T10:09:37.877Z,7.22
2022-08-17T10:12:34.168Z,6.38
2022-08-17T10:15:18.054Z,6.57
2022-08-17T10:17:50.771Z,4.72
2022-08-17T10:20:21.043Z,4.28
2022-08-17T10:22:54.821Z,4.68
2022-08-17T10:25:26.022Z,4.80
2022-08-17T10:28:00.516Z,6.32
2022-08-17T10:30:29.215Z,5.63
2022-08-17T10:32:58.088Z,4.30
2022-08-17T10:35:29.596Z,5.13
2022-08-17T10:38:06.991Z,4.55
2022-08-17T10:40:37.772Z,5.28
2022-08-17T10:43:17.095Z,3.75
2022-08-17T10:45:47.912Z,4.45
2022-08-17T10:48:32.992Z,6.75
2022-08-17T10:51:05.642Z,5.63
2022-08-17T10:53:55.916Z,6.03
2022-08-17T10:56:40.711Z,5.28
2022-08-17T10:59:09.513Z,5.38
2022-08-17T11:01:55.552Z,6.28
2022-08-17T11:04:32.464Z,7.45
2022-08-17T11:07:05.448Z,6.90
2022-08-17T11:09:38.619Z,6.60
2022-08-17T11:12:11.665Z,7.82
2022-08-17T11:15:03.654Z,7.07
2022-08-17T11:21:02.191Z,8.27
2022-08-17T11:23:43.261Z,7.68
2022-08-17T11:26:21.539Z,8.82
2022-08-17T11:28:52.592Z,9.10
2022-08-17T11:31:38.923Z,7.55
2022-08-17T11:34:13.376Z,9.48
2022-08-17T11:36:59.523Z,8.85
2022-08-17T11:39:35.838Z,10.48
2022-08-17T11:42:05.536Z,9.13
2022-08-17T11:44:41.296Z,9.35
2022-08-17T11:47:11.447Z,8.02
2022-08-17T11:50:00.762Z,9.40
2022-08-17T11:52:46.891Z,9.82
2022-08-17T11:55:39.369Z,6.70
2022-08-17T11:58:33.332Z,8.05
2022-08-17T12:01:00.728Z,9.55
2022-08-17T12:03:55.286Z,7.63
2022-08-17T12:06:41.320Z,11.47
2022-08-17T12:09:11.488Z,10.68
2022-08-17T12:12:11.067Z,16.50
2022-08-17T12:15:05.931Z,15.13
2022-08-17T12:17:39.236Z,15.65
2022-08-17T12:20:14.664Z,14.93
2022-08-17T12:23:04.619Z,8.35
2022-08-17T12:25:47.069Z,11.40
2022-08-17T12:28:48.614Z,16.35
2022-08-17T12:31:27.994Z,12.23
2022-08-17T12:33:55.369Z,11.38
2022-08-17T12:36:26.719Z,12.45
2022-08-17T12:38:55.845Z,14.52
2022-08-17T12:41:30.500Z,12.90
2022-08-17T12:43:58.735Z,14.48
2022-08-17T12:46:27.651Z,14.68
2022-08-17T12:48:55.188Z,12.75
2022-08-17T12:51:26.780Z,12.60
2022-08-17T12:53:55.149Z,14.75
2022-08-17T12:56:22.543Z,14.73
2022-08-17T12:58:52.783Z,12.57
2022-08-17T13:01:23.584Z,12.65
2022-08-17T13:03:53.305Z,12.57
2022-08-17T13:06:27.748Z,13.60
2022-08-17T13:08:55.111Z,13.48
2022-08-17T13:11:23.841Z,12.63
2022-08-17T13:13:52.275Z,14.38
2022-08-17T13:16:20.911Z,14.63
2022-08-17T13:18:49.261Z,12.02
2022-08-17T13:21:25.140Z,11.07
2022-08-17T13:23:57.143Z,13.82
2022-08-17T13:26:27.378Z,12.95
2022-08-17T13:28:54.630Z,11.68
2022-08-17T13:31:22.410Z,8.60
2022-08-17T13:33:49.664Z,10.75
2022-08-17T13:36:27.964Z,11.13
2022-08-17T13:39:06.040Z,10.93
2022-08-17T13:41:34.440Z,9.45
2022-08-17T13:44:01.775Z,10.65
2022-08-17T13:46:30.523Z,11.50
2022-08-17T13:48:59.244Z,10.82
2022-08-17T13:51:33.567Z,9.05
2022-08-17T13:54:06.184Z,7.20
2022-08-17T13:56:48.414Z,10.88
2022-08-17T13:59:16.905Z,8.55
2022-08-17T14:02:03.993Z,12.27
2022-08-17T14:04:32.372Z,7.65
2022-08-17T14:07:03.042Z,10.15
2022-08-17T14:09:37.016Z,12.55
2022-08-17T14:12:06.377Z,9.88
2022-08-17T14:14:33.743Z,10.30
2022-08-17T14:17:01.312Z,11.38
2022-08-17T14:19:28.564Z,8.90
2022-08-17T14:21:55.981Z,10.25
2022-08-17T14:24:29.364Z,8.27
2022-08-17T14:26:56.988Z,8.32
2022-08-17T14:29:25.529Z,13.05
2022-08-17T14:31:54.447Z,11.85
2022-08-17T14:34:22.761Z,12.23
2022-08-17T14:36:50.069Z,11.05
2022-08-17T14:39:18.586Z,7.60
2022-08-17T14:41:47.332Z,11.38
2022-08-17T14:44:14.912Z,12.75
2022-08-17T14:46:43.131Z,9.93
2022-08-17T14:49:11.136Z,11.65
2022-08-17T14:51:43.610Z,13.10
2022-08-17T14:54:33.273Z,12.77
2022-08-17T14:57:04.615Z,11.90
2022-08-17T14:59:48.655Z,11.32
2022-08-17T15:02:19.251Z,11.98
2022-08-17T15:04:46.462Z,11.55
2022-08-17T15:07:14.142Z,13.07
2022-08-17T15:09:41.562Z,11.00
2022-08-17T15:12:16.035Z,13.02
2022-08-17T15:14:43.456Z,6.82
2022-08-17T15:17:10.716Z,13.17
2022-08-17T15:19:38.001Z,13.85
2022-08-17T15:22:05.723Z,11.27
2022-08-17T15:24:33.252Z,15.35
2022-08-17T15:27:00.670Z,14.07
2022-08-17T15:29:29.531Z,10.73
2022-08-17T15:32:00.607Z,11.93
2022-08-17T15:34:28.317Z,14.77
2022-08-17T15:36:55.643Z,14.23
2022-08-17T15:39:23.012Z,12.60
2022-08-17T15:41:58.717Z,9.60
2022-08-17T15:44:32.442Z,10.38
2022-08-17T15:47:03.688Z,11.60
2022-08-17T15:49:30.945Z,7.28
2022-08-17T15:51:58.620Z,7.90
2022-08-17T15:54:25.916Z,10.30
2022-08-17T15:57:01.595Z,9.00
2022-08-17T15:59:29.048Z,8.45
2022-08-17T16:03:13.091Z,8.57
2022-08-17T16:04:45.127Z,7.00
2022-08-17T16:07:15.312Z,6.50
2022-08-17T16:09:42.597Z,7.72
2022-08-17T16:12:11.040Z,9.10
2022-08-17T16:14:38.330Z,7.43
2022-08-17T16:17:38.567Z,8.45
2022-08-17T16:19:55.561Z,7.15
2022-08-17T16:22:30.737Z,7.70
2022-08-17T16:24:57.992Z,6.35
2022-08-17T16:27:25.339Z,10.77
2022-08-17T16:29:55.418Z,9.27
2022-08-17T16:32:31.838Z,8.48
2022-08-17T16:35:03.298Z,7.40
2022-08-17T16:37:30.608Z,8.00
2022-08-17T16:40:01.617Z,7.82
2022-08-17T16:42:29.956Z,7.65
2022-08-17T16:45:01.836Z,8.07
2022-08-17T16:47:29.131Z,5.82
2022-08-17T16:49:56.501Z,7.38
2022-08-17T16:52:32.604Z,6.90
2022-08-17T16:55:01.192Z,7.47
2022-08-17T16:57:29.204Z,8.80
2022-08-17T16:59:56.732Z,8.57
2022-08-17T17:02:28.511Z,7.80
2022-08-17T17:04:58.938Z,6.63
2022-08-17T17:07:36.947Z,8.93
2022-08-17T17:10:06.290Z,10.35
2022-08-17T17:13:01.629Z,8.68
2022-08-17T17:15:22.199Z,6.82
2022-08-17T17:17:50.381Z,7.63
2022-08-17T17:20:18.667Z,5.57
2022-08-17T17:22:49.035Z,7.25
2022-08-17T17:25:20.328Z,9.23
2022-08-17T17:27:50.810Z,8.30
2022-08-17T17:30:19.653Z,8.27
2022-08-17T17:32:50.103Z,7.40
2022-08-17T17:35:19.537Z,7.15
2022-08-17T17:37:48.383Z,7.80
2022-08-17T17:40:17.918Z,10.30
2022-08-17T17:42:45.343Z,8.45
2022-08-17T17:45:15.559Z,7.30
2022-08-17T17:47:42.900Z,8.40
2022-08-17T17:50:10.720Z,7.88
2022-08-17T17:52:42.485Z,12.05
2022-08-17T17:55:19.130Z,10.27
2022-08-17T17:57:52.994Z,12.05
2022-08-17T18:00:22.094Z,10.50
2022-08-17T18:02:54.194Z,10.32
2022-08-17T18:05:36.403Z,11.57
2022-08-17T18:08:10.954Z,10.18
2022-08-17T18:10:48.965Z,9.70
2022-08-17T18:13:22.421Z,10.90
2022-08-17T18:15:53.992Z,7.80
2022-08-17T18:18:27.926Z,7.65
2022-08-17T18:21:00.987Z,7.90
2022-08-17T18:23:28.833Z,7.65
2022-08-17T18:25:58.290Z,5.75
2022-08-17T18:28:26.879Z,5.82
2022-08-17T18:31:07.736Z,5.05
2022-08-17T18:33:35.499Z,7.30
2022-08-17T18:36:02.894Z,5.53
2022-08-17T18:38:31.163Z,5.45
2022-08-17T18:41:01.520Z,6.97
2022-08-17T18:43:44.522Z,6.53
2022-08-17T18:46:28.241Z,5.07
2022-08-17T18:48:58.919Z,8.85
2022-08-17T18:51:41.072Z,4.17
2022-08-17T18:54:16.699Z,4.60
2022-08-17T18:56:48.964Z,4.72
2022-08-17T18:59:23.262Z,3.60
2022-08-17T19:02:10.030Z,6.82
2022-08-17T19:04:42.504Z,7.78
2022-08-17T19:07:11.974Z,6.47
2022-08-17T19:09:41.195Z,6.38
2022-08-17T19:12:14.258Z,6.68
2022-08-17T19:14:42.043Z,8.80
2022-08-17T19:17:13.387Z,7.32
2022-08-17T19:19:45.221Z,6.38
2022-08-17T19:22:29.010Z,5.43
2022-08-17T19:25:04.624Z,4.63
2022-08-17T19:27:42.081Z,5.72
2022-08-17T19:30:14.813Z,5.63
2022-08-17T19:32:42.619Z,10.00
2022-08-17T19:35:17.360Z,6.40
2022-08-17T19:37:48.119Z,8.48
2022-08-17T19:40:48.806Z,4.97
2022-08-17T19:43:17.273Z,7.53
2022-08-17T19:45:52.179Z,4.40
2022-08-17T19:48:24.856Z,4.13
2022-08-17T19:50:54.869Z,6.55
2022-08-17T19:53:47.399Z,6.40
2022-08-17T19:56:18.296Z,4.32
2022-08-17T19:58:56.609Z,6.63
2022-08-17T20:01:34.423Z,6.87
2022-08-17T20:04:07.437Z,4.73
2022-08-17T20:06:37.906Z,5.70
2022-08-17T20:09:14.647Z,7.35
2022-08-17T20:11:46.604Z,7.22
2022-08-17T20:14:17.024Z,4.37
2022-08-17T20:16:44.452Z,7.47
2022-08-17T20:19:17.872Z,5.30
2022-08-17T20:21:50.029Z,8.90
2022-08-17T20:24:20.151Z,8.35
2022-08-17T20:26:58.334Z,7.75
2022-08-17T20:29:39.792Z,10.50
2022-08-17T20:32:22.678Z,7.93
2022-08-17T20:35:00.812Z,7.22
2022-08-17T20:37:32.608Z,7.77
2022-08-17T20:40:15.567Z,5.05
2022-08-17T20:42:43.077Z,4.97
2022-08-17T20:45:25.178Z,7.87
2022-08-17T20:48:22.073Z,5.82
2022-08-17T20:50:45.392Z,5.38
2022-08-17T20:53:32.643Z,6.77
2022-08-17T20:55:59.907Z,6.00
2022-08-17T20:58:42.071Z,6.67
2022-08-17T21:01:13.129Z,6.00
2022-08-17T21:03:50.445Z,6.22
2022-08-17T21:06:20.101Z,10.02
2022-08-17T21:08:49.236Z,6.00
2022-08-17T21:11:56.639Z,6.78
2022-08-17T21:14:26.579Z,5.30
2022-08-17T21:17:08.210Z,6.57
2022-08-17T21:20:00.634Z,9.57
2022-08-17T21:22:40.397Z,10.97
2022-08-17T21:25:14.307Z,6.23
2022-08-17T21:27:48.425Z,7.32
2022-08-17T21:30:44.447Z,7.00
2022-08-17T21:33:21.607Z,6.90
2022-08-17T21:35:53.118Z,6.50
2022-08-17T21:38:33.927Z,8.53
2022-08-17T21:41:01.281Z,4.93
2022-08-17T21:43:30.769Z,7.13
2022-08-17T21:49:39.631Z,6.20
2022-08-17T21:52:08.412Z,4.67
2022-08-17T21:54:37.109Z,6.37
2022-08-17T21:57:05.798Z,8.93
2022-08-17T21:59:34.375Z,5.50
2022-08-17T22:02:22.109Z,7.70
2022-08-17T22:04:57.436Z,6.93
2022-08-17T22:07:36.576Z,7.70
2022-08-17T22:10:05.061Z,6.17
2022-08-17T22:16:27.820Z,6.03
2022-08-17T22:18:56.639Z,4.67
2022-08-17T22:21:25.135Z,4.50
2022-08-17T22:24:02.227Z,6.50
2022-08-17T22:26:44.392Z,4.37
2022-08-17T22:29:31.741Z,4.73
2022-08-17T22:32:01.032Z,12.43
2022-08-17T22:34:28.270Z,5.80
2022-08-17T22:37:10.437Z,5.03
2022-08-17T22:39:41.456Z,4.83
2022-08-17T22:42:14.382Z,8.43
2022-08-17T22:45:12.748Z,6.80
2022-08-17T22:51:13.723Z,6.80
2022-08-17T22:53:46.122Z,6.60
2022-08-17T22:56:15.526Z,8.33
2022-08-17T22:58:43.902Z,6.20
2022-08-17T23:04:33.815Z,15.03
2022-08-17T23:07:02.424Z,7.40
2022-08-17T23:09:29.643Z,6.80
2022-08-17T23:12:06.209Z,8.70
2022-08-17T23:14:55.171Z,12.87
2022-08-17T23:17:22.475Z,4.97
2022-08-17T23:19:49.808Z,6.27
2022-08-17T23:22:18.472Z,4.50
2022-08-17T23:24:47.000Z,9.63
2022-08-17T23:27:14.223Z,7.53
2022-08-17T23:29:41.479Z,7.13
2022-08-17T23:32:09.880Z,7.83
2022-08-17T23:34:37.510Z,4.07
2022-08-17T23:37:05.172Z,7.30
2022-08-17T23:39:33.897Z,6.93
2022-08-17T23:42:02.224Z,8.07
2022-08-17T23:44:29.542Z,8.13
2022-08-17T23:46:58.541Z,6.30
2022-08-17T23:49:25.998Z,7.13
2022-08-17T23:51:53.291Z,8.53
2022-08-17T23:54:23.346Z,6.13
